sensor_id;sensor_type;location;lat;lon;timestamp;pressure;altitude;pressure_sealevel;temperature;humidity
21588;BME280;10956;48.878;13.316;2023-12-04T00:01:44;94564.81;;;-8.87;100.00
21588;BME280;10956;48.878;13.316;2023-12-04T00:04:10;94558.38;;;-8.91;100.00
21588;BME280;10956;48.878;13.316;2023-12-04T00:06:35;94560.38;;;-8.94;100.00
21588;BME280;10956;48.878;13.316;2023-12-04T00:09:01;94556.53;;;-9.08;100.00
21588;BME280;10956;48.878;13.316;2023-12-04T00:11:26;94556.53;;;-9.18;100.00
21588;BME280;10956;48.878;13.316;2023-12-04T00:13:52;94545.28;;;-9.25;100.00
21588;BME280;10956;48.878;13.316;2023-12-04T00:16:18;94547.69;;;-9.23;100.00
21588;BME280;10956;48.878;13.316;2023-12-04T00:18:43;94554.41;;;-9.22;100.00
21588;BME280;10956;48.878;13.316;2023-12-04T00:21:08;94556.94;;;-9.13;100.00
21588;BME280;10956;48.878;13.316;2023-12-04T00:23:34;94554.66;;;-9.06;100.00
21588;BME280;10956;48.878;13.316;2023-12-04T00:25:59;94543.59;;;-8.97;100.00
21588;BME280;10956;48.878;13.316;2023-12-04T00:28:25;94546.44;;;-9.09;100.00
21588;BME280;10956;48.878;13.316;2023-12-04T00:30:50;94535.63;;;-9.40;100.00
21588;BME280;10956;48.878;13.316;2023-12-04T00:33:16;94539.94;;;-9.51;100.00
21588;BME280;10956;48.878;13.316;2023-12-04T00:35:41;94532.81;;;-9.57;100.00
21588;BME280;10956;48.878;13.316;2023-12-04T00:38:07;94532.69;;;-9.55;100.00
21588;BME280;10956;48.878;13.316;2023-12-04T00:40:32;94525.44;;;-9.50;100.00
21588;BME280;10956;48.878;13.316;2023-12-04T00:42:58;94525.41;;;-9.40;100.00
21588;BME280;10956;48.878;13.316;2023-12-04T00:45:24;94536.16;;;-9.37;100.00
21588;BME280;10956;48.878;13.316;2023-12-04T00:47:49;94523.53;;;-9.29;100.00
21588;BME280;10956;48.878;13.316;2023-12-04T00:50:15;94523.78;;;-9.22;100.00
21588;BME280;10956;48.878;13.316;2023-12-04T00:52:40;94532.06;;;-9.10;100.00
21588;BME280;10956;48.878;13.316;2023-12-04T00:55:06;94523.78;;;-9.22;100.00
21588;BME280;10956;48.878;13.316;2023-12-04T00:57:31;94520.84;;;-9.27;100.00
21588;BME280;10956;48.878;13.316;2023-12-04T00:59:56;94518.44;;;-9.38;100.00
21588;BME280;10956;48.878;13.316;2023-12-04T01:02:22;94518.03;;;-9.43;100.00
21588;BME280;10956;48.878;13.316;2023-12-04T01:04:47;94512.25;;;-9.46;100.00
21588;BME280;10956;48.878;13.316;2023-12-04T01:07:13;94518.16;;;-9.35;100.00
21588;BME280;10956;48.878;13.316;2023-12-04T01:09:38;94526.75;;;-9.36;100.00
21588;BME280;10956;48.878;13.316;2023-12-04T01:12:04;94514.53;;;-9.33;100.00
21588;BME280;10956;48.878;13.316;2023-12-04T01:14:29;94510.63;;;-9.27;100.00
21588;BME280;10956;48.878;13.316;2023-12-04T01:16:55;94495.16;;;-9.16;100.00
21588;BME280;10956;48.878;13.316;2023-12-04T01:19:21;94493.53;;;-9.17;100.00
21588;BME280;10956;48.878;13.316;2023-12-04T01:21:46;94495.03;;;-9.24;100.00
21588;BME280;10956;48.878;13.316;2023-12-04T01:24:12;94496.91;;;-9.26;100.00
21588;BME280;10956;48.878;13.316;2023-12-04T01:26:37;94494.91;;;-9.32;100.00
21588;BME280;10956;48.878;13.316;2023-12-04T01:29:03;94478.66;;;-9.31;100.00
21588;BME280;10956;48.878;13.316;2023-12-04T01:31:29;94475.00;;;-9.19;100.00
21588;BME280;10956;48.878;13.316;2023-12-04T01:33:54;94476.06;;;-9.12;100.00
21588;BME280;10956;48.878;13.316;2023-12-04T01:36:19;94470.66;;;-9.09;100.00
21588;BME280;10956;48.878;13.316;2023-12-04T01:38:45;94463.53;;;-9.05;100.00
21588;BME280;10956;48.878;13.316;2023-12-04T01:41:10;94462.16;;;-9.00;100.00
21588;BME280;10956;48.878;13.316;2023-12-04T01:43:36;94454.88;;;-8.95;100.00
21588;BME280;10956;48.878;13.316;2023-12-04T01:46:01;94449.78;;;-8.95;100.00
21588;BME280;10956;48.878;13.316;2023-12-04T01:48:28;94448.69;;;-8.92;100.00
21588;BME280;10956;48.878;13.316;2023-12-04T01:50:55;94442.25;;;-8.96;100.00
21588;BME280;10956;48.878;13.316;2023-12-04T01:53:21;94444.16;;;-8.98;100.00
21588;BME280;10956;48.878;13.316;2023-12-04T01:55:46;94435.69;;;-8.99;100.00
21588;BME280;10956;48.878;13.316;2023-12-04T01:58:12;94434.22;;;-9.01;100.00
21588;BME280;10956;48.878;13.316;2023-12-04T02:00:38;94440.13;;;-9.01;100.00
21588;BME280;10956;48.878;13.316;2023-12-04T02:03:03;94426.00;;;-8.95;100.00
21588;BME280;10956;48.878;13.316;2023-12-04T02:05:29;94420.84;;;-8.86;100.00
21588;BME280;10956;48.878;13.316;2023-12-04T02:07:56;94420.41;;;-8.81;100.00
21588;BME280;10956;48.878;13.316;2023-12-04T02:10:22;94416.53;;;-8.85;100.00
21588;BME280;10956;48.878;13.316;2023-12-04T02:12:49;94411.72;;;-8.88;100.00
21588;BME280;10956;48.878;13.316;2023-12-04T02:15:14;94410.53;;;-8.94;100.00
21588;BME280;10956;48.878;13.316;2023-12-04T02:17:40;94405.72;;;-8.97;100.00
21588;BME280;10956;48.878;13.316;2023-12-04T02:20:07;94413.00;;;-9.02;100.00
21588;BME280;10956;48.878;13.316;2023-12-04T02:22:33;94406.38;;;-9.22;100.00
21588;BME280;10956;48.878;13.316;2023-12-04T02:24:59;94411.47;;;-9.22;100.00
21588;BME280;10956;48.878;13.316;2023-12-04T02:27:28;94408.25;;;-9.24;100.00
21588;BME280;10956;48.878;13.316;2023-12-04T02:29:59;94400.34;;;-9.31;100.00
21588;BME280;10956;48.878;13.316;2023-12-04T02:32:28;94402.31;;;-9.15;100.00
21588;BME280;10956;48.878;13.316;2023-12-04T02:34:54;94396.28;;;-9.24;100.00
21588;BME280;10956;48.878;13.316;2023-12-04T02:37:22;94387.16;;;-9.26;100.00
21588;BME280;10956;48.878;13.316;2023-12-04T02:39:48;94375.72;;;-9.22;100.00
21588;BME280;10956;48.878;13.316;2023-12-04T02:42:14;94373.31;;;-9.24;100.00
21588;BME280;10956;48.878;13.316;2023-12-04T02:44:42;94371.72;;;-9.25;100.00
21588;BME280;10956;48.878;13.316;2023-12-04T02:47:07;94374.84;;;-9.31;100.00
21588;BME280;10956;48.878;13.316;2023-12-04T02:49:33;94366.38;;;-9.31;100.00
21588;BME280;10956;48.878;13.316;2023-12-04T02:51:58;94365.16;;;-9.27;100.00
21588;BME280;10956;48.878;13.316;2023-12-04T02:54:24;94360.69;;;-9.25;100.00
21588;BME280;10956;48.878;13.316;2023-12-04T02:56:50;94353.84;;;-9.25;100.00
21588;BME280;10956;48.878;13.316;2023-12-04T02:59:15;94359.63;;;-9.23;100.00
21588;BME280;10956;48.878;13.316;2023-12-04T03:01:40;94354.00;;;-9.26;100.00
21588;BME280;10956;48.878;13.316;2023-12-04T03:04:06;94340.28;;;-9.25;100.00
21588;BME280;10956;48.878;13.316;2023-12-04T03:06:31;94348.59;;;-9.23;100.00
21588;BME280;10956;48.878;13.316;2023-12-04T03:08:57;94338.09;;;-9.20;100.00
21588;BME280;10956;48.878;13.316;2023-12-04T03:11:24;94338.91;;;-9.20;100.00
21588;BME280;10956;48.878;13.316;2023-12-04T03:13:49;94328.66;;;-9.10;100.00
21588;BME280;10956;48.878;13.316;2023-12-04T03:16:16;94325.44;;;-9.12;100.00
21588;BME280;10956;48.878;13.316;2023-12-04T03:18:42;94333.19;;;-9.04;100.00
21588;BME280;10956;48.878;13.316;2023-12-04T03:21:07;94331.50;;;-8.95;100.00
21588;BME280;10956;48.878;13.316;2023-12-04T03:23:33;94321.16;;;-8.94;100.00
21588;BME280;10956;48.878;13.316;2023-12-04T03:25:58;94316.72;;;-8.92;100.00
21588;BME280;10956;48.878;13.316;2023-12-04T03:28:23;94317.88;;;-8.86;100.00
21588;BME280;10956;48.878;13.316;2023-12-04T03:30:49;94314.22;;;-8.84;100.00
21588;BME280;10956;48.878;13.316;2023-12-04T03:33:14;94312.63;;;-8.85;100.00
21588;BME280;10956;48.878;13.316;2023-12-04T03:35:40;94303.06;;;-8.83;100.00
21588;BME280;10956;48.878;13.316;2023-12-04T03:38:05;94309.13;;;-8.84;100.00
21588;BME280;10956;48.878;13.316;2023-12-04T03:40:31;94307.22;;;-8.82;100.00
21588;BME280;10956;48.878;13.316;2023-12-04T03:42:56;94310.16;;;-8.76;100.00
21588;BME280;10956;48.878;13.316;2023-12-04T03:45:22;94306.50;;;-8.74;100.00
21588;BME280;10956;48.878;13.316;2023-12-04T03:47:47;94309.56;;;-8.70;100.00
21588;BME280;10956;48.878;13.316;2023-12-04T03:50:13;94302.28;;;-8.65;100.00
21588;BME280;10956;48.878;13.316;2023-12-04T03:52:38;94292.84;;;-8.65;100.00
21588;BME280;10956;48.878;13.316;2023-12-04T03:55:04;94285.03;;;-8.63;100.00
21588;BME280;10956;48.878;13.316;2023-12-04T03:57:29;94285.03;;;-8.63;100.00
21588;BME280;10956;48.878;13.316;2023-12-04T03:59:55;94285.63;;;-8.69;100.00
21588;BME280;10956;48.878;13.316;2023-12-04T04:02:20;94283.06;;;-8.69;100.00
21588;BME280;10956;48.878;13.316;2023-12-04T04:04:46;94275.03;;;-8.74;100.00
21588;BME280;10956;48.878;13.316;2023-12-04T04:07:11;94276.00;;;-8.75;100.00
21588;BME280;10956;48.878;13.316;2023-12-04T04:09:36;94288.09;;;-8.77;100.00
21588;BME280;10956;48.878;13.316;2023-12-04T04:12:02;94275.03;;;-8.74;100.00
21588;BME280;10956;48.878;13.316;2023-12-04T04:14:28;94270.00;;;-8.66;100.00
21588;BME280;10956;48.878;13.316;2023-12-04T04:16:53;94270.72;;;-8.56;100.00
21588;BME280;10956;48.878;13.316;2023-12-04T04:19:19;94273.63;;;-8.51;100.00
21588;BME280;10956;48.878;13.316;2023-12-04T04:21:44;94265.91;;;-8.59;100.00
21588;BME280;10956;48.878;13.316;2023-12-04T04:24:09;94255.69;;;-8.59;100.00
21588;BME280;10956;48.878;13.316;2023-12-04T04:26:35;94263.06;;;-8.56;100.00
21588;BME280;10956;48.878;13.316;2023-12-04T04:29:01;94258.31;;;-8.51;100.00
21588;BME280;10956;48.878;13.316;2023-12-04T04:31:26;94259.91;;;-8.50;100.00
21588;BME280;10956;48.878;13.316;2023-12-04T04:33:51;94265.31;;;-8.53;100.00
21588;BME280;10956;48.878;13.316;2023-12-04T04:36:17;94259.19;;;-8.60;100.00
21588;BME280;10956;48.878;13.316;2023-12-04T04:38:42;94266.50;;;-8.65;100.00
21588;BME280;10956;48.878;13.316;2023-12-04T04:41:13;94258.84;;;-8.65;100.00
21588;BME280;10956;48.878;13.316;2023-12-04T04:43:39;94252.63;;;-8.63;100.00
21588;BME280;10956;48.878;13.316;2023-12-04T04:46:05;94251.69;;;-8.62;100.00
21588;BME280;10956;48.878;13.316;2023-12-04T04:48:30;94250.88;;;-8.62;100.00
21588;BME280;10956;48.878;13.316;2023-12-04T04:50:56;94251.03;;;-8.64;100.00
21588;BME280;10956;48.878;13.316;2023-12-04T04:53:21;94246.06;;;-8.65;100.00
21588;BME280;10956;48.878;13.316;2023-12-04T04:55:46;94250.22;;;-8.64;100.00
21588;BME280;10956;48.878;13.316;2023-12-04T04:58:12;94245.59;;;-8.43;100.00
21588;BME280;10956;48.878;13.316;2023-12-04T05:00:37;94240.06;;;-8.56;100.00
21588;BME280;10956;48.878;13.316;2023-12-04T05:03:03;94242.56;;;-8.64;100.00
21588;BME280;10956;48.878;13.316;2023-12-04T05:05:28;94228.19;;;-8.65;100.00
21588;BME280;10956;48.878;13.316;2023-12-04T05:07:53;94225.94;;;-8.68;100.00
21588;BME280;10956;48.878;13.316;2023-12-04T05:10:19;94226.06;;;-8.70;100.00
21588;BME280;10956;48.878;13.316;2023-12-04T05:12:44;94221.03;;;-8.62;100.00
21588;BME280;10956;48.878;13.316;2023-12-04T05:15:09;94211.00;;;-8.55;100.00
21588;BME280;10956;48.878;13.316;2023-12-04T05:17:35;94205.00;;;-8.46;100.00
21588;BME280;10956;48.878;13.316;2023-12-04T05:20:00;94198.28;;;-8.47;100.00
21588;BME280;10956;48.878;13.316;2023-12-04T05:22:26;94201.00;;;-8.49;100.00
21588;BME280;10956;48.878;13.316;2023-12-04T05:24:51;94194.94;;;-8.48;100.00
21588;BME280;10956;48.878;13.316;2023-12-04T05:27:16;94198.94;;;-8.45;100.00
21588;BME280;10956;48.878;13.316;2023-12-04T05:29:42;94192.56;;;-8.41;100.00
21588;BME280;10956;48.878;13.316;2023-12-04T05:32:07;94184.63;;;-8.30;100.00
21588;BME280;10956;48.878;13.316;2023-12-04T05:34:34;94187.22;;;-8.22;100.00
21588;BME280;10956;48.878;13.316;2023-12-04T05:36:59;94185.63;;;-8.23;100.00
21588;BME280;10956;48.878;13.316;2023-12-04T05:39:24;94191.69;;;-8.24;100.00
21588;BME280;10956;48.878;13.316;2023-12-04T05:41:50;94190.72;;;-8.23;100.00
21588;BME280;10956;48.878;13.316;2023-12-04T05:44:16;94194.25;;;-8.24;100.00
21588;BME280;10956;48.878;13.316;2023-12-04T05:46:41;94191.84;;;-8.25;100.00
21588;BME280;10956;48.878;13.316;2023-12-04T05:49:07;94193.28;;;-8.23;100.00
21588;BME280;10956;48.878;13.316;2023-12-04T05:51:32;94186.91;;;-8.19;100.00
21588;BME280;10956;48.878;13.316;2023-12-04T05:53:58;94188.25;;;-8.06;100.00
21588;BME280;10956;48.878;13.316;2023-12-04T05:56:23;94177.38;;;-8.08;100.00
21588;BME280;10956;48.878;13.316;2023-12-04T05:58:48;94180.84;;;-8.18;100.00
21588;BME280;10956;48.878;13.316;2023-12-04T06:01:14;94176.19;;;-8.22;100.00
21588;BME280;10956;48.878;13.316;2023-12-04T06:03:40;94171.88;;;-8.22;100.00
21588;BME280;10956;48.878;13.316;2023-12-04T06:06:06;94167.56;;;-8.21;100.00
21588;BME280;10956;48.878;13.316;2023-12-04T06:08:31;94160.75;;;-8.12;100.00
21588;BME280;10956;48.878;13.316;2023-12-04T06:10:57;94152.31;;;-8.05;100.00
21588;BME280;10956;48.878;13.316;2023-12-04T06:13:23;94159.00;;;-8.04;100.00
21588;BME280;10956;48.878;13.316;2023-12-04T06:15:48;94154.41;;;-8.00;100.00
21588;BME280;10956;48.878;13.316;2023-12-04T06:18:13;94148.31;;;-7.99;100.00
21588;BME280;10956;48.878;13.316;2023-12-04T06:20:39;94151.69;;;-7.99;100.00
21588;BME280;10956;48.878;13.316;2023-12-04T06:23:05;94153.09;;;-8.04;100.00
21588;BME280;10956;48.878;13.316;2023-12-04T06:25:30;94151.50;;;-8.05;100.00
21588;BME280;10956;48.878;13.316;2023-12-04T06:27:56;94149.09;;;-8.07;100.00
21588;BME280;10956;48.878;13.316;2023-12-04T06:30:22;94140.94;;;-8.10;100.00
21588;BME280;10956;48.878;13.316;2023-12-04T06:32:48;94145.09;;;-8.09;100.00
21588;BME280;10956;48.878;13.316;2023-12-04T06:35:14;94138.38;;;-8.10;100.00
21588;BME280;10956;48.878;13.316;2023-12-04T06:37:40;94131.34;;;-8.08;100.00
21588;BME280;10956;48.878;13.316;2023-12-04T06:40:06;94127.84;;;-8.07;100.00
21588;BME280;10956;48.878;13.316;2023-12-04T06:42:34;94122.09;;;-8.01;100.00
21588;BME280;10956;48.878;13.316;2023-12-04T06:45:00;94123.72;;;-8.00;100.00
21588;BME280;10956;48.878;13.316;2023-12-04T06:47:26;94128.50;;;-7.97;100.00
21588;BME280;10956;48.878;13.316;2023-12-04T06:49:53;94127.91;;;-7.91;100.00
21588;BME280;10956;48.878;13.316;2023-12-04T06:52:18;94125.34;;;-7.83;100.00
21588;BME280;10956;48.878;13.316;2023-12-04T06:54:44;94130.66;;;-7.76;100.00
21588;BME280;10956;48.878;13.316;2023-12-04T06:57:09;94125.41;;;-7.67;100.00
21588;BME280;10956;48.878;13.316;2023-12-04T06:59:35;94119.81;;;-7.54;100.00
21588;BME280;10956;48.878;13.316;2023-12-04T07:02:00;94116.78;;;-7.50;100.00
21588;BME280;10956;48.878;13.316;2023-12-04T07:04:25;94107.66;;;-7.52;100.00
21588;BME280;10956;48.878;13.316;2023-12-04T07:06:51;94101.28;;;-7.56;100.00
21588;BME280;10956;48.878;13.316;2023-12-04T07:09:16;94102.88;;;-7.55;100.00
21588;BME280;10956;48.878;13.316;2023-12-04T07:11:42;94103.19;;;-7.50;100.00
21588;BME280;10956;48.878;13.316;2023-12-04T07:14:09;94095.69;;;-7.43;100.00
21588;BME280;10956;48.878;13.316;2023-12-04T07:16:43;94097.59;;;-7.45;100.00
21588;BME280;10956;48.878;13.316;2023-12-04T07:19:09;94096.31;;;-7.41;100.00
21588;BME280;10956;48.878;13.316;2023-12-04T07:21:36;94094.56;;;-7.33;100.00
21588;BME280;10956;48.878;13.316;2023-12-04T07:24:02;94090.56;;;-7.27;100.00
21588;BME280;10956;48.878;13.316;2023-12-04T07:26:27;94082.25;;;-7.13;100.00
21588;BME280;10956;48.878;13.316;2023-12-04T07:28:53;94079.03;;;-7.07;100.00
21588;BME280;10956;48.878;13.316;2023-12-04T07:31:19;94081.75;;;-7.00;100.00
21588;BME280;10956;48.878;13.316;2023-12-04T07:33:44;94074.88;;;-6.92;100.00
21588;BME280;10956;48.878;13.316;2023-12-04T07:36:10;94078.06;;;-6.81;100.00
21588;BME280;10956;48.878;13.316;2023-12-04T07:38:35;94067.00;;;-6.74;100.00
21588;BME280;10956;48.878;13.316;2023-12-04T07:41:01;94066.16;;;-6.58;100.00
21588;BME280;10956;48.878;13.316;2023-12-04T07:43:26;94065.16;;;-6.49;100.00
21588;BME280;10956;48.878;13.316;2023-12-04T07:45:52;94065.97;;;-6.48;100.00
21588;BME280;10956;48.878;13.316;2023-12-04T07:48:20;94058.44;;;-6.50;100.00
21588;BME280;10956;48.878;13.316;2023-12-04T07:50:45;94058.72;;;-6.45;100.00
21588;BME280;10956;48.878;13.316;2023-12-04T07:53:10;94062.88;;;-6.36;100.00
21588;BME280;10956;48.878;13.316;2023-12-04T07:55:37;94053.53;;;-6.29;100.00
21588;BME280;10956;48.878;13.316;2023-12-04T07:58:02;94051.13;;;-6.22;100.00
21588;BME280;10956;48.878;13.316;2023-12-04T08:00:28;94053.19;;;-6.17;100.00
21588;BME280;10956;48.878;13.316;2023-12-04T08:02:53;94054.63;;;-6.15;100.00
21588;BME280;10956;48.878;13.316;2023-12-04T08:05:18;94054.78;;;-6.16;100.00
21588;BME280;10956;48.878;13.316;2023-12-04T08:07:44;94052.16;;;-6.08;100.00
21588;BME280;10956;48.878;13.316;2023-12-04T08:10:10;94039.75;;;-5.97;100.00
21588;BME280;10956;48.878;13.316;2023-12-04T08:12:35;94033.09;;;-5.83;100.00
21588;BME280;10956;48.878;13.316;2023-12-04T08:15:01;94034.63;;;-5.74;100.00
21588;BME280;10956;48.878;13.316;2023-12-04T08:17:27;94028.41;;;-5.57;100.00
21588;BME280;10956;48.878;13.316;2023-12-04T08:19:52;94023.84;;;-5.46;100.00
21588;BME280;10956;48.878;13.316;2023-12-04T08:22:18;94014.66;;;-5.41;100.00
21588;BME280;10956;48.878;13.316;2023-12-04T08:24:43;94016.97;;;-5.31;100.00
21588;BME280;10956;48.878;13.316;2023-12-04T08:27:09;94009.38;;;-5.25;100.00
21588;BME280;10956;48.878;13.316;2023-12-04T08:29:34;94000.53;;;-5.22;100.00
21588;BME280;10956;48.878;13.316;2023-12-04T08:32:00;94007.19;;;-5.13;100.00
21588;BME280;10956;48.878;13.316;2023-12-04T08:34:25;93991.97;;;-5.00;100.00
21588;BME280;10956;48.878;13.316;2023-12-04T08:36:50;93997.66;;;-4.90;100.00
21588;BME280;10956;48.878;13.316;2023-12-04T08:39:16;93994.47;;;-4.77;100.00
21588;BME280;10956;48.878;13.316;2023-12-04T08:41:45;93978.16;;;-4.69;100.00
21588;BME280;10956;48.878;13.316;2023-12-04T08:44:11;93970.34;;;-4.61;100.00
21588;BME280;10956;48.878;13.316;2023-12-04T08:46:36;93974.41;;;-4.52;100.00
21588;BME280;10956;48.878;13.316;2023-12-04T08:49:02;93964.28;;;-4.39;100.00
21588;BME280;10956;48.878;13.316;2023-12-04T08:51:27;93959.66;;;-4.29;100.00
21588;BME280;10956;48.878;13.316;2023-12-04T08:53:52;93959.81;;;-4.15;100.00
21588;BME280;10956;48.878;13.316;2023-12-04T08:56:18;93960.56;;;-4.00;100.00
21588;BME280;10956;48.878;13.316;2023-12-04T08:58:43;93957.50;;;-3.89;100.00
21588;BME280;10956;48.878;13.316;2023-12-04T09:01:08;93960.22;;;-3.76;100.00
21588;BME280;10956;48.878;13.316;2023-12-04T09:03:34;93960.94;;;-3.61;100.00
21588;BME280;10956;48.878;13.316;2023-12-04T09:05:59;93954.94;;;-3.46;100.00
21588;BME280;10956;48.878;13.316;2023-12-04T09:08:25;93958.16;;;-3.38;100.00
21588;BME280;10956;48.878;13.316;2023-12-04T09:10:53;93955.41;;;-3.36;100.00
21588;BME280;10956;48.878;13.316;2023-12-04T09:13:18;93958.97;;;-3.37;100.00
21588;BME280;10956;48.878;13.316;2023-12-04T09:15:44;93951.47;;;-3.32;100.00
21588;BME280;10956;48.878;13.316;2023-12-04T09:18:09;93951.53;;;-3.26;100.00
21588;BME280;10956;48.878;13.316;2023-12-04T09:20:34;93955.13;;;-3.20;100.00
21588;BME280;10956;48.878;13.316;2023-12-04T09:23:01;93949.84;;;-3.12;100.00
21588;BME280;10956;48.878;13.316;2023-12-04T09:25:27;93950.72;;;-2.98;100.00
21588;BME280;10956;48.878;13.316;2023-12-04T09:27:52;93942.31;;;-2.79;100.00
21588;BME280;10956;48.878;13.316;2023-12-04T09:30:18;93938.81;;;-2.65;99.71
21588;BME280;10956;48.878;13.316;2023-12-04T09:32:43;93930.53;;;-2.53;98.54
21588;BME280;10956;48.878;13.316;2023-12-04T09:35:10;93927.53;;;-2.57;98.31
21588;BME280;10956;48.878;13.316;2023-12-04T09:37:36;93916.44;;;-2.51;98.67
21588;BME280;10956;48.878;13.316;2023-12-04T09:40:02;93905.16;;;-2.43;98.65
21588;BME280;10956;48.878;13.316;2023-12-04T09:42:29;93906.19;;;-2.38;99.22
21588;BME280;10956;48.878;13.316;2023-12-04T09:44:56;93902.81;;;-2.32;98.99
21588;BME280;10956;48.878;13.316;2023-12-04T09:47:23;93901.06;;;-2.24;99.13
21588;BME280;10956;48.878;13.316;2023-12-04T09:49:51;93891.75;;;-2.12;99.34
21588;BME280;10956;48.878;13.316;2023-12-04T09:52:17;93886.63;;;-1.99;98.53
21588;BME280;10956;48.878;13.316;2023-12-04T09:54:44;93881.47;;;-1.86;97.58
21588;BME280;10956;48.878;13.316;2023-12-04T09:57:09;93878.69;;;-1.78;96.94
21588;BME280;10956;48.878;13.316;2023-12-04T09:59:35;93872.75;;;-1.72;96.15
21588;BME280;10956;48.878;13.316;2023-12-04T10:02:01;93857.25;;;-1.72;96.02
21588;BME280;10956;48.878;13.316;2023-12-04T10:04:27;93862.00;;;-1.62;95.91
21588;BME280;10956;48.878;13.316;2023-12-04T10:06:52;93865.19;;;-1.53;95.31
21588;BME280;10956;48.878;13.316;2023-12-04T10:09:18;93875.91;;;-1.50;95.03
21588;BME280;10956;48.878;13.316;2023-12-04T10:11:45;93859.41;;;-1.42;94.60
21588;BME280;10956;48.878;13.316;2023-12-04T10:14:20;93852.03;;;-1.32;93.76
21588;BME280;10956;48.878;13.316;2023-12-04T10:16:46;93840.91;;;-1.26;93.24
21588;BME280;10956;48.878;13.316;2023-12-04T10:19:17;93842.09;;;-1.28;92.87
21588;BME280;10956;48.878;13.316;2023-12-04T10:21:45;93843.28;;;-1.24;92.47
21588;BME280;10956;48.878;13.316;2023-12-04T10:24:10;93839.69;;;-1.17;92.32
21588;BME280;10956;48.878;13.316;2023-12-04T10:26:36;93835.72;;;-1.13;91.49
21588;BME280;10956;48.878;13.316;2023-12-04T10:29:02;93835.69;;;-1.06;91.41
21588;BME280;10956;48.878;13.316;2023-12-04T10:31:34;93831.31;;;-1.12;91.26
21588;BME280;10956;48.878;13.316;2023-12-04T10:34:02;93832.13;;;-1.12;91.56
21588;BME280;10956;48.878;13.316;2023-12-04T10:36:28;93821.41;;;-1.22;91.33
21588;BME280;10956;48.878;13.316;2023-12-04T10:38:59;93822.22;;;-1.28;91.57
21588;BME280;10956;48.878;13.316;2023-12-04T10:41:25;93821.81;;;-1.25;91.31
21588;BME280;10956;48.878;13.316;2023-12-04T10:43:51;93817.81;;;-1.21;90.99
21588;BME280;10956;48.878;13.316;2023-12-04T10:46:16;93817.59;;;-1.13;90.56
21588;BME280;10956;48.878;13.316;2023-12-04T10:48:44;93815.00;;;-1.06;90.29
21588;BME280;10956;48.878;13.316;2023-12-04T10:51:12;93808.59;;;-0.97;90.34
21588;BME280;10956;48.878;13.316;2023-12-04T10:53:38;93801.00;;;-0.85;90.29
21588;BME280;10956;48.878;13.316;2023-12-04T10:56:09;93798.97;;;-0.77;90.32
21588;BME280;10956;48.878;13.316;2023-12-04T10:58:38;93802.50;;;-0.64;90.47
21588;BME280;10956;48.878;13.316;2023-12-04T11:01:06;93796.47;;;-0.52;90.64
21588;BME280;10956;48.878;13.316;2023-12-04T11:04:00;93791.63;;;-0.42;91.29
21588;BME280;10956;48.878;13.316;2023-12-04T11:06:34;93779.25;;;-0.33;91.69
21588;BME280;10956;48.878;13.316;2023-12-04T11:09:01;93777.03;;;-0.29;91.82
21588;BME280;10956;48.878;13.316;2023-12-04T11:11:32;93780.00;;;-0.26;92.01
21588;BME280;10956;48.878;13.316;2023-12-04T11:14:01;93769.84;;;-0.27;92.39
21588;BME280;10956;48.878;13.316;2023-12-04T11:19:59;93773.47;;;-0.35;93.12
21588;BME280;10956;48.878;13.316;2023-12-04T11:22:00;93759.91;;;-0.30;93.10
21588;BME280;10956;48.878;13.316;2023-12-04T11:24:27;93754.47;;;-0.22;93.03
21588;BME280;10956;48.878;13.316;2023-12-04T11:26:53;93754.63;;;-0.17;92.42
21588;BME280;10956;48.878;13.316;2023-12-04T11:29:19;93756.81;;;-0.14;92.27
21588;BME280;10956;48.878;13.316;2023-12-04T11:31:46;93752.38;;;-0.07;92.40
21588;BME280;10956;48.878;13.316;2023-12-04T11:34:12;93753.13;;;0.00;92.50
21588;BME280;10956;48.878;13.316;2023-12-04T11:36:38;93749.09;;;0.04;92.40
21588;BME280;10956;48.878;13.316;2023-12-04T11:39:08;93743.91;;;0.04;92.07
21588;BME280;10956;48.878;13.316;2023-12-04T11:41:35;93757.88;;;0.03;91.82
21588;BME280;10956;48.878;13.316;2023-12-04T11:44:00;93755.69;;;0.00;91.78
21588;BME280;10956;48.878;13.316;2023-12-04T11:46:28;93749.16;;;-0.03;91.56
21588;BME280;10956;48.878;13.316;2023-12-04T11:48:57;93745.97;;;-0.05;91.55
21588;BME280;10956;48.878;13.316;2023-12-04T11:54:09;93753.53;;;-0.03;91.09
21588;BME280;10956;48.878;13.316;2023-12-04T11:56:35;93742.31;;;0.03;91.18
21588;BME280;10956;48.878;13.316;2023-12-04T11:59:05;93747.09;;;0.06;91.38
21588;BME280;10956;48.878;13.316;2023-12-04T12:01:36;93740.00;;;-0.05;92.18
21588;BME280;10956;48.878;13.316;2023-12-04T12:04:04;93733.06;;;-0.11;92.63
21588;BME280;10956;48.878;13.316;2023-12-04T12:06:30;93736.03;;;-0.08;92.19
21588;BME280;10956;48.878;13.316;2023-12-04T12:08:56;93741.59;;;-0.04;92.29
21588;BME280;10956;48.878;13.316;2023-12-04T12:11:23;93741.16;;;-0.01;92.50
21588;BME280;10956;48.878;13.316;2023-12-04T12:13:48;93730.00;;;-0.02;92.53
21588;BME280;10956;48.878;13.316;2023-12-04T12:16:14;93730.38;;;0.02;92.86
21588;BME280;10956;48.878;13.316;2023-12-04T12:18:40;93735.09;;;0.12;92.66
21588;BME280;10956;48.878;13.316;2023-12-04T12:21:07;93723.81;;;0.24;91.75
21588;BME280;10956;48.878;13.316;2023-12-04T12:23:33;93716.75;;;0.31;91.83
21588;BME280;10956;48.878;13.316;2023-12-04T12:25:59;93704.75;;;0.37;91.58
21588;BME280;10956;48.878;13.316;2023-12-04T12:28:25;93696.19;;;0.37;91.87
21588;BME280;10956;48.878;13.316;2023-12-04T12:30:50;93687.81;;;0.35;93.10
21588;BME280;10956;48.878;13.316;2023-12-04T12:33:19;93677.88;;;0.31;93.98
21588;BME280;10956;48.878;13.316;2023-12-04T12:35:46;93672.72;;;0.31;93.87
21588;BME280;10956;48.878;13.316;2023-12-04T12:38:12;93673.72;;;0.30;94.01
21588;BME280;10956;48.878;13.316;2023-12-04T12:40:37;93667.53;;;0.31;94.37
21588;BME280;10956;48.878;13.316;2023-12-04T12:43:07;93667.94;;;0.28;95.09